sensor_id;sensor_type;location;lat;lon;timestamp;P1;durP1;ratioP1;P2;durP2;ratioP2
74223;SDS011;62585;49.706;18.216;2022-10-26T17:24:31;0.00;;;0.00;;
74223;SDS011;62585;49.706;18.216;2022-10-26T17:26:57;0.10;;;0.10;;
74223;SDS011;62585;49.706;18.216;2022-10-26T17:29:22;0.90;;;0.90;;
74223;SDS011;62585;49.706;18.216;2022-10-26T17:31:48;5.03;;;2.60;;
74223;SDS011;62585;49.706;18.216;2022-10-26T17:34:14;1.20;;;1.13;;
74223;SDS011;62585;49.706;18.216;2022-10-26T17:36:39;0.47;;;0.47;;
74223;SDS011;62585;49.706;18.216;2022-10-26T17:39:05;2.58;;;1.67;;
74223;SDS011;62585;49.706;18.216;2022-10-26T17:41:31;0.70;;;0.30;;
74223;SDS011;62585;49.706;18.216;2022-10-26T17:43:56;10.02;;;3.42;;
74223;SDS011;62585;49.706;18.216;2022-10-26T17:46:23;9.50;;;4.50;;
74223;SDS011;62585;49.706;18.216;2022-10-26T17:48:53;8.10;;;5.15;;
74223;SDS011;62585;49.706;18.216;2022-10-26T17:51:21;7.25;;;4.45;;
74223;SDS011;62585;49.706;18.216;2022-10-26T17:53:47;6.90;;;4.63;;
74223;SDS011;62585;49.706;18.216;2022-10-26T17:56:15;8.88;;;4.43;;
74223;SDS011;62585;49.706;18.216;2022-10-26T17:58:42;6.00;;;3.08;;
74223;SDS011;62585;49.706;18.216;2022-10-26T18:01:09;6.47;;;4.22;;
74223;SDS011;62585;49.706;18.216;2022-10-26T18:03:37;7.30;;;4.07;;
74223;SDS011;62585;49.706;18.216;2022-10-26T18:08:32;6.20;;;4.28;;
74223;SDS011;62585;49.706;18.216;2022-10-26T18:10:59;9.60;;;4.47;;
74223;SDS011;62585;49.706;18.216;2022-10-26T18:13:28;6.20;;;4.57;;
74223;SDS011;62585;49.706;18.216;2022-10-26T18:16:04;9.35;;;5.22;;
74223;SDS011;62585;49.706;18.216;2022-10-26T18:18:32;8.20;;;4.40;;
74223;SDS011;62585;49.706;18.216;2022-10-26T18:20:59;11.88;;;4.80;;
74223;SDS011;62585;49.706;18.216;2022-10-26T18:23:26;13.60;;;6.57;;
74223;SDS011;62585;49.706;18.216;2022-10-26T18:25:59;11.27;;;6.00;;
74223;SDS011;62585;49.706;18.216;2022-10-26T18:28:30;10.13;;;6.57;;
74223;SDS011;62585;49.706;18.216;2022-10-26T18:31:06;0.00;;;0.00;;
74223;SDS011;62585;49.706;18.216;2022-10-26T18:33:34;0.10;;;0.10;;
74223;SDS011;62585;49.706;18.216;2022-10-26T18:36:01;0.10;;;0.10;;
74223;SDS011;62585;49.706;18.216;2022-10-26T18:38:29;0.10;;;0.10;;
74223;SDS011;62585;49.706;18.216;2022-10-26T18:40:56;0.08;;;0.08;;
74223;SDS011;62585;49.706;18.216;2022-10-26T18:43:23;0.10;;;0.10;;
74223;SDS011;62585;49.706;18.216;2022-10-26T18:45:49;0.10;;;0.10;;
74223;SDS011;62585;49.706;18.216;2022-10-26T18:48:15;0.08;;;0.08;;
74223;SDS011;62585;49.706;18.216;2022-10-26T18:50:43;0.00;;;0.00;;
74223;SDS011;62585;49.706;18.216;2022-10-26T18:53:09;0.10;;;0.10;;
74223;SDS011;62585;49.706;18.216;2022-10-26T18:55:41;0.10;;;0.10;;
74223;SDS011;62585;49.706;18.216;2022-10-26T18:58:07;0.00;;;0.00;;
74223;SDS011;62585;49.706;18.216;2022-10-26T19:00:38;0.10;;;0.10;;
74223;SDS011;62585;49.706;18.216;2022-10-26T19:03:07;0.05;;;0.05;;
74223;SDS011;62585;49.706;18.216;2022-10-26T19:05:34;0.10;;;0.10;;
74223;SDS011;62585;49.706;18.216;2022-10-26T19:08:06;0.10;;;0.10;;
74223;SDS011;62585;49.706;18.216;2022-10-26T19:10:35;0.00;;;0.00;;
74223;SDS011;62585;49.706;18.216;2022-10-26T19:13:01;0.00;;;0.00;;
74223;SDS011;62585;49.706;18.216;2022-10-26T19:15:31;0.10;;;0.10;;
74223;SDS011;62585;49.706;18.216;2022-10-26T19:17:58;0.00;;;0.00;;
74223;SDS011;62585;49.706;18.216;2022-10-26T19:20:27;0.10;;;0.10;;
74223;SDS011;62585;49.706;18.216;2022-10-26T19:22:54;0.10;;;0.10;;
74223;SDS011;62585;49.706;18.216;2022-10-26T19:25:23;0.00;;;0.00;;
74223;SDS011;62585;49.706;18.216;2022-10-26T19:27:49;0.10;;;0.10;;
74223;SDS011;62585;49.706;18.216;2022-10-26T19:30:16;0.10;;;0.10;;
74223;SDS011;62585;49.706;18.216;2022-10-26T19:32:42;0.05;;;0.05;;
74223;SDS011;62585;49.706;18.216;2022-10-26T19:35:08;0.00;;;0.00;;
74223;SDS011;62585;49.706;18.216;2022-10-26T19:37:34;0.10;;;0.10;;
74223;SDS011;62585;49.706;18.216;2022-10-26T19:40:00;0.20;;;0.20;;
74223;SDS011;62585;49.706;18.216;2022-10-26T19:42:26;0.03;;;0.03;;
74223;SDS011;62585;49.706;18.216;2022-10-26T19:44:52;0.40;;;0.40;;
74223;SDS011;62585;49.706;18.216;2022-10-26T19:47:18;0.10;;;0.10;;
74223;SDS011;62585;49.706;18.216;2022-10-26T19:49:44;4.13;;;4.03;;
74223;SDS011;62585;49.706;18.216;2022-10-26T19:52:10;0.10;;;0.10;;
74223;SDS011;62585;49.706;18.216;2022-10-26T19:54:36;4.00;;;3.63;;
74223;SDS011;62585;49.706;18.216;2022-10-26T19:57:01;0.57;;;0.57;;
74223;SDS011;62585;49.706;18.216;2022-10-26T19:59:27;0.88;;;0.88;;
74223;SDS011;62585;49.706;18.216;2022-10-26T20:01:53;0.10;;;0.10;;
74223;SDS011;62585;49.706;18.216;2022-10-26T20:04:19;0.10;;;0.10;;
74223;SDS011;62585;49.706;18.216;2022-10-26T20:06:45;0.00;;;0.00;;
74223;SDS011;62585;49.706;18.216;2022-10-26T20:09:10;1.45;;;1.00;;
74223;SDS011;62585;49.706;18.216;2022-10-26T20:11:36;0.10;;;0.10;;
74223;SDS011;62585;49.706;18.216;2022-10-26T20:14:04;0.20;;;0.20;;
74223;SDS011;62585;49.706;18.216;2022-10-26T20:16:31;0.10;;;0.10;;
74223;SDS011;62585;49.706;18.216;2022-10-26T20:18:59;0.10;;;0.10;;
74223;SDS011;62585;49.706;18.216;2022-10-26T20:21:25;0.00;;;0.00;;
74223;SDS011;62585;49.706;18.216;2022-10-26T20:23:51;0.10;;;0.10;;
74223;SDS011;62585;49.706;18.216;2022-10-26T20:26:16;0.10;;;0.10;;
74223;SDS011;62585;49.706;18.216;2022-10-26T20:28:43;0.10;;;0.10;;
74223;SDS011;62585;49.706;18.216;2022-10-26T20:33:36;0.10;;;0.10;;
74223;SDS011;62585;49.706;18.216;2022-10-26T20:36:01;0.10;;;0.10;;
74223;SDS011;62585;49.706;18.216;2022-10-26T20:38:27;0.10;;;0.10;;
74223;SDS011;62585;49.706;18.216;2022-10-26T20:40:54;0.10;;;0.10;;
74223;SDS011;62585;49.706;18.216;2022-10-26T20:43:22;0.10;;;0.10;;
74223;SDS011;62585;49.706;18.216;2022-10-26T20:45:48;0.10;;;0.10;;
74223;SDS011;62585;49.706;18.216;2022-10-26T20:48:14;0.10;;;0.10;;
74223;SDS011;62585;49.706;18.216;2022-10-26T20:50:41;0.10;;;0.10;;
74223;SDS011;62585;49.706;18.216;2022-10-26T20:56:00;0.10;;;0.10;;
74223;SDS011;62585;49.706;18.216;2022-10-26T21:03:39;0.00;;;0.00;;
74223;SDS011;62585;49.706;18.216;2022-10-26T21:06:04;0.20;;;0.20;;
74223;SDS011;62585;49.706;18.216;2022-10-26T21:08:30;0.20;;;0.20;;
74223;SDS011;62585;49.706;18.216;2022-10-26T21:10:56;0.10;;;0.10;;
74223;SDS011;62585;49.706;18.216;2022-10-26T21:13:22;0.00;;;0.00;;
74223;SDS011;62585;49.706;18.216;2022-10-26T21:15:47;0.10;;;0.10;;
74223;SDS011;62585;49.706;18.216;2022-10-26T21:20:40;0.10;;;0.10;;
74223;SDS011;62585;49.706;18.216;2022-10-26T21:23:06;0.10;;;0.10;;
74223;SDS011;62585;49.706;18.216;2022-10-26T21:25:33;0.10;;;0.10;;
74223;SDS011;62585;49.706;18.216;2022-10-26T21:28:00;0.00;;;0.00;;
74223;SDS011;62585;49.706;18.216;2022-10-26T21:30:26;0.95;;;0.95;;
74223;SDS011;62585;49.706;18.216;2022-10-26T21:32:52;0.10;;;0.10;;
74223;SDS011;62585;49.706;18.216;2022-10-26T21:35:18;0.00;;;0.00;;
74223;SDS011;62585;49.706;18.216;2022-10-26T21:37:45;0.10;;;0.10;;
74223;SDS011;62585;49.706;18.216;2022-10-26T21:40:11;0.10;;;0.10;;
74223;SDS011;62585;49.706;18.216;2022-10-26T21:42:37;0.05;;;0.05;;
74223;SDS011;62585;49.706;18.216;2022-10-26T21:45:03;0.00;;;0.00;;
74223;SDS011;62585;49.706;18.216;2022-10-26T21:47:29;13.40;;;7.18;;
74223;SDS011;62585;49.706;18.216;2022-10-26T21:49:54;16.13;;;8.52;;
74223;SDS011;62585;49.706;18.216;2022-10-26T21:52:20;16.58;;;9.48;;
74223;SDS011;62585;49.706;18.216;2022-10-26T21:54:46;14.80;;;7.70;;
74223;SDS011;62585;49.706;18.216;2022-10-26T21:57:12;17.73;;;8.75;;
74223;SDS011;62585;49.706;18.216;2022-10-26T21:59:37;11.85;;;6.95;;
74223;SDS011;62585;49.706;18.216;2022-10-26T22:02:03;14.52;;;8.32;;
74223;SDS011;62585;49.706;18.216;2022-10-26T22:04:29;11.82;;;7.15;;
74223;SDS011;62585;49.706;18.216;2022-10-26T22:06:54;13.35;;;7.40;;
74223;SDS011;62585;49.706;18.216;2022-10-26T22:09:20;14.70;;;7.53;;
74223;SDS011;62585;49.706;18.216;2022-10-26T22:11:46;15.70;;;8.27;;
74223;SDS011;62585;49.706;18.216;2022-10-26T22:14:12;9.38;;;7.15;;
74223;SDS011;62585;49.706;18.216;2022-10-26T22:16:39;11.35;;;7.43;;
74223;SDS011;62585;49.706;18.216;2022-10-26T22:19:05;16.20;;;8.27;;
74223;SDS011;62585;49.706;18.216;2022-10-26T22:21:35;15.70;;;8.27;;
74223;SDS011;62585;49.706;18.216;2022-10-26T22:24:03;13.35;;;8.30;;
74223;SDS011;62585;49.706;18.216;2022-10-26T22:26:30;14.50;;;8.60;;
74223;SDS011;62585;49.706;18.216;2022-10-26T22:28:56;14.88;;;7.88;;
74223;SDS011;62585;49.706;18.216;2022-10-26T22:31:24;0.10;;;0.10;;
74223;SDS011;62585;49.706;18.216;2022-10-26T22:33:51;1.85;;;1.38;;
74223;SDS011;62585;49.706;18.216;2022-10-26T22:36:18;0.55;;;0.55;;
74223;SDS011;62585;49.706;18.216;2022-10-26T22:38:43;0.10;;;0.10;;
74223;SDS011;62585;49.706;18.216;2022-10-26T22:41:09;0.10;;;0.10;;
74223;SDS011;62585;49.706;18.216;2022-10-26T22:43:35;0.10;;;0.10;;
74223;SDS011;62585;49.706;18.216;2022-10-26T22:46:03;0.10;;;0.10;;
74223;SDS011;62585;49.706;18.216;2022-10-26T22:48:30;0.08;;;0.08;;
74223;SDS011;62585;49.706;18.216;2022-10-26T22:50:57;0.10;;;0.10;;
74223;SDS011;62585;49.706;18.216;2022-10-26T22:53:23;0.10;;;0.10;;
74223;SDS011;62585;49.706;18.216;2022-10-26T22:55:49;0.00;;;0.00;;
74223;SDS011;62585;49.706;18.216;2022-10-26T22:58:15;0.17;;;0.17;;
74223;SDS011;62585;49.706;18.216;2022-10-26T23:00:41;0.10;;;0.10;;
74223;SDS011;62585;49.706;18.216;2022-10-26T23:03:06;0.10;;;0.10;;
74223;SDS011;62585;49.706;18.216;2022-10-26T23:05:32;0.10;;;0.10;;
74223;SDS011;62585;49.706;18.216;2022-10-26T23:07:58;0.08;;;0.08;;
74223;SDS011;62585;49.706;18.216;2022-10-26T23:10:24;0.10;;;0.10;;
74223;SDS011;62585;49.706;18.216;2022-10-26T23:12:49;0.10;;;0.10;;
74223;SDS011;62585;49.706;18.216;2022-10-26T23:15:16;0.00;;;0.00;;
74223;SDS011;62585;49.706;18.216;2022-10-26T23:17:42;0.10;;;0.10;;
74223;SDS011;62585;49.706;18.216;2022-10-26T23:20:08;0.10;;;0.10;;
74223;SDS011;62585;49.706;18.216;2022-10-26T23:22:34;0.00;;;0.00;;
74223;SDS011;62585;49.706;18.216;2022-10-26T23:25:00;0.00;;;0.00;;
74223;SDS011;62585;49.706;18.216;2022-10-26T23:27:25;0.00;;;0.00;;
74223;SDS011;62585;49.706;18.216;2022-10-26T23:29:51;0.08;;;0.08;;
74223;SDS011;62585;49.706;18.216;2022-10-26T23:32:17;0.00;;;0.00;;
74223;SDS011;62585;49.706;18.216;2022-10-26T23:34:43;0.10;;;0.10;;
74223;SDS011;62585;49.706;18.216;2022-10-26T23:37:08;0.10;;;0.10;;
74223;SDS011;62585;49.706;18.216;2022-10-26T23:39:34;20.08;;;10.40;;
74223;SDS011;62585;49.706;18.216;2022-10-26T23:42:00;20.38;;;11.48;;
74223;SDS011;62585;49.706;18.216;2022-10-26T23:44:26;24.67;;;11.68;;
74223;SDS011;62585;49.706;18.216;2022-10-26T23:46:51;28.13;;;12.80;;
74223;SDS011;62585;49.706;18.216;2022-10-26T23:49:17;25.67;;;11.43;;
74223;SDS011;62585;49.706;18.216;2022-10-26T23:51:42;25.35;;;13.35;;
74223;SDS011;62585;49.706;18.216;2022-10-26T23:54:08;25.23;;;12.40;;
74223;SDS011;62585;49.706;18.216;2022-10-26T23:56:34;23.20;;;12.13;;
74223;SDS011;62585;49.706;18.216;2022-10-26T23:59:00;23.08;;;11.02;;
